Weather at Darbhanga Airport

Public forecast

Using degrees Celsius for public forecast. Weather courtesy of forecast.io.

Closest aviation weather report (METAR) to Darbhanga Airport

Closest report is Lok Nayak Jayaprakash Airport, 57.5 nm (106.5 km) SW. Retrieved 2021/03/05 23:30 UTC (1 hour ago):

VEPT 052330Z 00000KT 2500 HZ NSC 19/09 Q1009 NOSIG

Closest aviation forecast (TAF) to Darbhanga Airport

Forecast is more than 12 hours old.

Closest forecast is Lok Nayak Jayaprakash Airport, 57.5 nm (106.5 km) SW. Retrieved 2021/03/05 12:00 UTC (13 hours ago):

TAF VEPT 051100Z 0512/0618 29005KT 3700 HZ NSC BECMG 0518/0520 00000KT 2700 HZ BECMG 0603/0605 23005KT 3700 HZ BECMG 0608/0610 29005KT 5000 HZ BECMG 0616/0618 00000KT 3000 HZ